Time;durP1;ratioP1;P1;durP2;ratioP2;P2;SDS_P1;SDS_P2;PMS_P1;PMS_P2;Temp;Humidity;BMP_temperature;BMP_pressure;BME280_temperature;BME280_humidity;BME280_pressure;Samples;Min_cycle;Max_cycle;Signal;HPM_P1;HPM_P2
2021/05/04 00:00:04;;;;;;;12.10;5.37;;;;;;;;;;5027263;28;20447;-96
2021/05/04 00:02:30;;;;;;;9.37;5.20;;;;;;;;;;5034746;28;20455;-94
2021/05/04 00:04:58;;;;;;;6.80;4.60;;;;;;;;;;5026727;28;20448;-95
2021/05/04 00:07:24;;;;;;;5.80;4.57;;;;;;;;;;5048238;28;20562;-94
2021/05/04 00:09:50;;;;;;;11.77;4.73;;;;;;;;;;5059079;28;20465;-96
2021/05/04 00:12:16;;;;;;;7.13;4.97;;;;;;;;;;5059222;28;20447;-93
2021/05/04 00:14:42;;;;;;;12.40;6.00;;;;;;;;;;5048454;28;20446;-94
2021/05/04 00:17:09;;;;;;;10.70;5.70;;;;;;;;;;5048097;28;20451;-93
2021/05/04 00:19:39;;;;;;;10.23;5.60;;;;;;;;;;5024207;28;20464;-96
2021/05/04 00:22:06;;;;;;;8.17;5.13;;;;;;;;;;5049962;28;20481;-94
2021/05/04 00:24:32;;;;;;;6.70;5.13;;;;;;;;;;5041215;28;20487;-94
2021/05/04 00:26:58;;;;;;;8.33;5.80;;;;;;;;;;5050854;28;20517;-95
2021/05/04 00:29:24;;;;;;;5.83;5.13;;;;;;;;;;5055685;28;20454;-95
2021/05/04 00:31:50;;;;;;;6.63;5.30;;;;;;;;;;5051479;28;20905;-94
2021/05/04 00:34:23;;;;;;;5.87;4.57;;;;;;;;;;5046537;28;20459;-96
2021/05/04 00:36:50;;;;;;;13.33;5.67;;;;;;;;;;5054720;28;20442;-93
2021/05/04 00:39:27;;;;;;;7.23;5.33;;;;;;;;;;5031396;28;20471;-93
2021/05/04 00:41:53;;;;;;;6.53;5.27;;;;;;;;;;5058060;28;20437;-96
2021/05/04 00:44:25;;;;;;;7.27;4.97;;;;;;;;;;5054037;28;20474;-96
2021/05/04 00:46:51;;;;;;;5.30;4.80;;;;;;;;;;5055183;28;20496;-93
2021/05/04 00:49:33;;;;;;;5.60;5.00;;;;;;;;;;5053848;28;20454;-95
2021/05/04 00:51:59;;;;;;;7.60;4.80;;;;;;;;;;5068306;28;20454;-93
2021/05/04 00:54:30;;;;;;;6.40;5.00;;;;;;;;;;5059081;28;20458;-96
2021/05/04 00:56:56;;;;;;;5.90;5.30;;;;;;;;;;5053548;28;20460;-93
2021/05/04 00:59:29;;;;;;;8.97;5.63;;;;;;;;;;5044077;23;20499;-96
2021/05/04 01:02:05;;;;;;;8.50;5.27;;;;;;;;;;5035005;28;20448;-96
2021/05/04 01:04:36;;;;;;;7.60;5.00;;;;;;;;;;5029625;28;20424;-95
2021/05/04 01:10:13;;;;;;;7.57;4.80;;;;;;;;;;4766111;22;20470;-96
2021/05/04 01:15:20;;;;;;;7.17;5.23;;;;;;;;;;5011957;28;20479;-96
2021/05/04 01:17:58;;;;;;;7.07;4.90;;;;;;;;;;4998237;28;20464;-96
2021/05/04 01:20:34;;;;;;;8.20;5.30;;;;;;;;;;4997597;28;20515;-95
2021/05/04 01:23:01;;;;;;;6.50;5.03;;;;;;;;;;4999651;28;20441;-93
2021/05/04 01:25:28;;;;;;;11.30;5.27;;;;;;;;;;5003029;23;20482;-94
2021/05/04 01:27:53;;;;;;;6.47;5.70;;;;;;;;;;5043575;28;20451;-93
2021/05/04 01:30:23;;;;;;;8.03;5.60;;;;;;;;;;5048871;28;20437;-96
2021/05/04 01:32:49;;;;;;;7.50;5.40;;;;;;;;;;5047218;28;20463;-93
2021/05/04 01:35:15;;;;;;;9.83;5.63;;;;;;;;;;5047255;28;20457;-94
2021/05/04 01:37:41;;;;;;;8.67;6.10;;;;;;;;;;5046594;28;20447;-96
2021/05/04 01:40:09;;;;;;;9.30;5.20;;;;;;;;;;5045095;28;20469;-93
2021/05/04 01:42:37;;;;;;;7.47;5.63;;;;;;;;;;5041672;28;20481;-94
2021/05/04 01:45:04;;;;;;;5.90;5.37;;;;;;;;;;5039543;28;20458;-94
2021/05/04 01:47:30;;;;;;;7.97;5.50;;;;;;;;;;5043387;28;20479;-94
2021/05/04 01:49:56;;;;;;;10.90;5.70;;;;;;;;;;5094528;23;20502;-95
2021/05/04 01:52:22;;;;;;;9.80;5.70;;;;;;;;;;5048951;28;20454;-95
2021/05/04 01:54:49;;;;;;;10.13;5.80;;;;;;;;;;5057575;28;20479;-94
2021/05/04 01:57:16;;;;;;;8.63;6.27;;;;;;;;;;5054268;28;20484;-95
2021/05/04 01:59:42;;;;;;;10.43;5.93;;;;;;;;;;5055015;28;20482;-95
2021/05/04 02:02:08;;;;;;;8.63;5.63;;;;;;;;;;5050577;28;20450;-95
2021/05/04 02:04:34;;;;;;;7.00;5.77;;;;;;;;;;5052955;28;20471;-96
2021/05/04 02:07:03;;;;;;;7.63;6.43;;;;;;;;;;5058620;28;20487;-94
2021/05/04 02:09:29;;;;;;;10.73;5.70;;;;;;;;;;5050844;28;20455;-94
2021/05/04 02:11:55;;;;;;;8.67;6.90;;;;;;;;;;5065809;28;20454;-94
2021/05/04 02:14:21;;;;;;;10.20;5.93;;;;;;;;;;5051463;28;20490;-92
2021/05/04 02:16:47;;;;;;;10.90;6.70;;;;;;;;;;5055279;28;20454;-94
2021/05/04 02:19:14;;;;;;;8.90;6.80;;;;;;;;;;5051352;28;20462;-93
2021/05/04 02:21:40;;;;;;;7.10;6.10;;;;;;;;;;5053384;28;20521;-96
2021/05/04 02:24:22;;;;;;;8.63;7.00;;;;;;;;;;5054188;28;20458;-96
2021/05/04 02:26:48;;;;;;;6.80;6.03;;;;;;;;;;5030986;28;20490;-96
2021/05/04 02:29:14;;;;;;;8.47;6.60;;;;;;;;;;5059952;28;20454;-95
2021/05/04 02:31:42;;;;;;;6.97;6.27;;;;;;;;;;5065480;28;20454;-96
2021/05/04 02:34:08;;;;;;;11.03;7.10;;;;;;;;;;5057601;28;20521;-96
2021/05/04 02:36:34;;;;;;;11.03;6.90;;;;;;;;;;5053745;28;20462;-96
2021/05/04 02:39:08;;;;;;;7.43;6.50;;;;;;;;;;5064689;28;20537;-96
2021/05/04 02:44:36;;;;;;;7.53;6.70;;;;;;;;;;5056473;28;20481;-96
2021/05/04 02:47:03;;;;;;;8.53;6.57;;;;;;;;;;5047324;28;20487;-96
2021/05/04 02:49:29;;;;;;;11.20;7.60;;;;;;;;;;5047859;28;20478;-94
2021/05/04 02:51:55;;;;;;;8.70;7.57;;;;;;;;;;5062537;28;20446;-95
2021/05/04 02:54:21;;;;;;;11.43;7.27;;;;;;;;;;5054002;28;20477;-96
2021/05/04 02:56:47;;;;;;;10.27;8.60;;;;;;;;;;5050688;28;20459;-96
2021/05/04 02:59:13;;;;;;;7.77;7.07;;;;;;;;;;5051628;28;20451;-96
2021/05/04 03:01:42;;;;;;;8.50;7.60;;;;;;;;;;5060174;28;20422;-96
2021/05/04 03:04:09;;;;;;;6.93;6.23;;;;;;;;;;5063815;28;20432;-96
2021/05/04 03:06:35;;;;;;;8.60;7.70;;;;;;;;;;5067393;28;20576;-96
2021/05/04 03:09:01;;;;;;;15.73;7.20;;;;;;;;;;5055729;28;20778;-96
2021/05/04 03:11:28;;;;;;;12.33;7.57;;;;;;;;;;5058296;28;20458;-96
2021/05/04 03:13:54;;;;;;;8.70;7.70;;;;;;;;;;5064981;28;20485;-96
2021/05/04 03:16:20;;;;;;;10.10;7.73;;;;;;;;;;5057472;28;20435;-96
2021/05/04 03:18:46;;;;;;;11.77;8.10;;;;;;;;;;5043514;28;20478;-96
2021/05/04 03:21:13;;;;;;;7.63;6.93;;;;;;;;;;5043377;28;20504;-94
2021/05/04 03:26:20;;;;;;;9.60;7.40;;;;;;;;;;5052851;28;20540;-96
2021/05/04 03:28:46;;;;;;;10.40;7.27;;;;;;;;;;5056633;28;20454;-96
2021/05/04 03:31:12;;;;;;;8.27;7.30;;;;;;;;;;5050427;28;20463;-95
2021/05/04 03:33:38;;;;;;;9.23;7.07;;;;;;;;;;5059648;28;20465;-96
2021/05/04 03:36:05;;;;;;;9.77;7.30;;;;;;;;;;5060659;28;20449;-96
2021/05/04 03:38:32;;;;;;;13.13;8.10;;;;;;;;;;5056452;28;20466;-96
2021/05/04 03:40:58;;;;;;;8.63;7.73;;;;;;;;;;5043122;28;21191;-95
2021/05/04 03:43:24;;;;;;;10.47;8.60;;;;;;;;;;5041484;28;20453;-96
2021/05/04 03:46:07;;;;;;;9.50;7.73;;;;;;;;;;5048909;28;20456;-96
2021/05/04 03:48:33;;;;;;;8.70;7.60;;;;;;;;;;5074410;28;20445;-96
2021/05/04 03:54:28;;;;;;;9.33;7.47;;;;;;;;;;5031437;28;20493;-96
2021/05/04 03:56:55;;;;;;;19.93;8.50;;;;;;;;;;5050558;28;20489;-96
2021/05/04 03:59:24;;;;;;;8.80;7.67;;;;;;;;;;5051962;28;20450;-96
2021/05/04 04:01:50;;;;;;;9.63;7.77;;;;;;;;;;5061343;28;20455;-96
2021/05/04 04:07:35;;;;;;;11.50;8.00;;;;;;;;;;5056581;28;20535;-96
2021/05/04 04:10:09;;;;;;;8.07;7.13;;;;;;;;;;5038261;28;20586;-96
2021/05/04 04:12:35;;;;;;;12.90;7.40;;;;;;;;;;5043953;28;21224;-96
2021/05/04 04:15:07;;;;;;;17.13;10.53;;;;;;;;;;5049352;28;20446;-96
2021/05/04 04:17:40;;;;;;;9.77;7.50;;;;;;;;;;5068644;28;20447;-94
2021/05/04 04:20:09;;;;;;;10.60;8.47;;;;;;;;;;5064367;28;20438;-96
2021/05/04 04:22:38;;;;;;;15.53;9.43;;;;;;;;;;5045522;28;20479;-96
2021/05/04 04:28:15;;;;;;;11.73;7.97;;;;;;;;;;5035971;28;20504;-96
2021/05/04 04:33:37;;;;;;;10.67;9.07;;;;;;;;;;5041872;28;20465;-96
2021/05/04 04:36:04;;;;;;;11.50;9.37;;;;;;;;;;5043748;28;20465;-96
2021/05/04 04:41:15;;;;;;;11.90;9.50;;;;;;;;;;5054306;28;20434;-96
2021/05/04 04:43:42;;;;;;;10.67;8.40;;;;;;;;;;5058967;28;20545;-96
2021/05/04 04:46:08;;;;;;;9.13;8.20;;;;;;;;;;5062660;28;20496;-96
2021/05/04 04:51:49;;;;;;;8.80;7.90;;;;;;;;;;5046283;28;20426;-96
2021/05/04 04:54:15;;;;;;;10.40;8.20;;;;;;;;;;5060857;28;21006;-96
2021/05/04 04:56:42;;;;;;;11.20;7.90;;;;;;;;;;5048435;28;20463;-96
2021/05/04 04:59:16;;;;;;;8.40;7.60;;;;;;;;;;5055142;28;20446;-96
2021/05/04 05:01:42;;;;;;;8.50;7.60;;;;;;;;;;5053438;28;20480;-96
2021/05/04 05:04:09;;;;;;;11.03;7.03;;;;;;;;;;5051915;28;20498;-96
2021/05/04 05:06:36;;;;;;;7.80;6.70;;;;;;;;;;5054632;28;20519;-95
2021/05/04 05:09:08;;;;;;;10.30;6.90;;;;;;;;;;5054675;28;20458;-96
2021/05/04 05:11:36;;;;;;;10.10;7.60;;;;;;;;;;5057828;28;20458;-96
2021/05/04 05:14:34;;;;;;;8.80;7.30;;;;;;;;;;5052367;28;20447;-96
2021/05/04 05:17:02;;;;;;;9.70;7.47;;;;;;;;;;5047798;28;20538;-95
2021/05/04 05:19:28;;;;;;;10.83;7.67;;;;;;;;;;5051553;28;20469;-96
2021/05/04 05:21:54;;;;;;;13.60;8.20;;;;;;;;;;5051143;23;20526;-96
2021/05/04 05:24:20;;;;;;;9.20;8.13;;;;;;;;;;5055820;28;20488;-96
2021/05/04 05:26:48;;;;;;;11.20;7.70;;;;;;;;;;5056609;28;20478;-96
2021/05/04 05:29:14;;;;;;;9.80;8.10;;;;;;;;;;5049586;28;20899;-95
2021/05/04 05:31:40;;;;;;;9.00;8.10;;;;;;;;;;5053349;28;20466;-96
2021/05/04 05:34:07;;;;;;;9.37;7.30;;;;;;;;;;5055818;28;20497;-96
2021/05/04 05:36:34;;;;;;;9.17;7.50;;;;;;;;;;5050178;28;20461;-96
2021/05/04 05:39:01;;;;;;;10.33;7.53;;;;;;;;;;5048344;28;20455;-96
2021/05/04 05:41:27;;;;;;;11.33;7.80;;;;;;;;;;5052903;28;20458;-96
2021/05/04 05:43:56;;;;;;;8.10;7.00;;;;;;;;;;5050086;28;20467;-96
2021/05/04 05:46:22;;;;;;;8.57;7.37;;;;;;;;;;5060581;28;20505;-96
2021/05/04 05:48:48;;;;;;;9.73;6.73;;;;;;;;;;5049315;28;20458;-96
2021/05/04 05:53:51;;;;;;;8.20;7.40;;;;;;;;;;5076188;22;20517;-95
2021/05/04 05:56:17;;;;;;;7.80;7.03;;;;;;;;;;5043520;28;20423;-95
2021/05/04 05:58:50;;;;;;;11.00;6.90;;;;;;;;;;5042992;28;20517;-96
2021/05/04 06:01:19;;;;;;;8.70;7.30;;;;;;;;;;5040381;28;20439;-96
2021/05/04 06:03:49;;;;;;;11.90;7.80;;;;;;;;;;5034141;28;20465;-94
2021/05/04 06:06:17;;;;;;;8.30;7.33;;;;;;;;;;5047259;28;20505;-93
2021/05/04 06:08:43;;;;;;;9.20;7.87;;;;;;;;;;5044654;28;20486;-93
2021/05/04 06:11:10;;;;;;;12.63;7.33;;;;;;;;;;5044832;28;20510;-92
2021/05/04 06:13:52;;;;;;;8.13;7.33;;;;;;;;;;5040222;28;20451;-96
2021/05/04 06:16:18;;;;;;;8.03;7.10;;;;;;;;;;5047717;28;20477;-95
2021/05/04 06:18:44;;;;;;;11.20;7.80;;;;;;;;;;5042328;28;20451;-94
2021/05/04 06:21:10;;;;;;;8.77;7.70;;;;;;;;;;5047833;28;20462;-93
2021/05/04 06:23:36;;;;;;;8.40;6.90;;;;;;;;;;5044710;28;20829;-94
2021/05/04 06:26:02;;;;;;;11.07;7.80;;;;;;;;;;5040571;28;20467;-95
2021/05/04 06:31:32;;;;;;;7.97;6.70;;;;;;;;;;5048656;28;20414;-92
2021/05/04 06:33:59;;;;;;;7.67;6.80;;;;;;;;;;5042630;28;20482;-94
2021/05/04 06:36:33;;;;;;;7.67;6.13;;;;;;;;;;5043844;28;20428;-93
2021/05/04 06:38:59;;;;;;;7.00;6.30;;;;;;;;;;5044016;28;20446;-94
2021/05/04 06:41:28;;;;;;;9.17;6.77;;;;;;;;;;5036031;28;20443;-94
2021/05/04 06:43:55;;;;;;;8.83;6.20;;;;;;;;;;5042607;28;20454;-96
2021/05/04 06:46:21;;;;;;;12.80;6.80;;;;;;;;;;5035676;28;20518;-95
2021/05/04 06:48:48;;;;;;;6.97;6.27;;;;;;;;;;5043466;28;20443;-94
2021/05/04 06:51:14;;;;;;;7.57;6.43;;;;;;;;;;5041905;28;20459;-93
2021/05/04 06:53:40;;;;;;;8.27;6.60;;;;;;;;;;5044250;28;20466;-93
2021/05/04 06:56:06;;;;;;;7.47;6.17;;;;;;;;;;5040957;28;20502;-93
2021/05/04 06:58:32;;;;;;;8.30;6.07;;;;;;;;;;5044019;28;20469;-93
2021/05/04 07:00:58;;;;;;;8.90;6.07;;;;;;;;;;5043684;28;20459;-93
2021/05/04 07:03:24;;;;;;;10.93;7.10;;;;;;;;;;5048491;28;20458;-96
2021/05/04 07:06:21;;;;;;;11.93;6.67;;;;;;;;;;5054618;28;20423;-96
2021/05/04 07:08:53;;;;;;;10.60;6.50;;;;;;;;;;5045017;28;20922;-96
2021/05/04 07:11:19;;;;;;;8.90;6.30;;;;;;;;;;5039088;28;20494;-94
2021/05/04 07:13:46;;;;;;;11.20;6.50;;;;;;;;;;5033750;28;20463;-96
2021/05/04 07:16:12;;;;;;;10.20;5.70;;;;;;;;;;5036298;28;20549;-93
2021/05/04 07:18:44;;;;;;;6.77;6.13;;;;;;;;;;5037085;28;20495;-96
2021/05/04 07:21:17;;;;;;;6.10;5.50;;;;;;;;;;5038633;28;20537;-96
2021/05/04 07:23:53;;;;;;;6.57;5.87;;;;;;;;;;5032321;28;20465;-94
2021/05/04 07:26:19;;;;;;;11.10;6.00;;;;;;;;;;5027767;28;20523;-94
2021/05/04 07:28:57;;;;;;;7.00;5.33;;;;;;;;;;5027457;28;20452;-95
2021/05/04 07:31:45;;;;;;;7.57;5.87;;;;;;;;;;5037052;28;21647;-95
2021/05/04 07:36:58;;;;;;;6.63;5.63;;;;;;;;;;5031530;28;20467;-95
2021/05/04 07:39:25;;;;;;;6.63;4.90;;;;;;;;;;5034106;28;20441;-95
2021/05/04 07:41:59;;;;;;;7.60;5.80;;;;;;;;;;5019657;28;20465;-96
2021/05/04 07:44:25;;;;;;;6.10;5.37;;;;;;;;;;5023949;28;20520;-96
2021/05/04 07:46:57;;;;;;;7.00;5.10;;;;;;;;;;5092459;22;20503;-96
2021/05/04 07:49:31;;;;;;;6.40;4.80;;;;;;;;;;5042746;28;20450;-95
2021/05/04 07:51:57;;;;;;;9.33;4.80;;;;;;;;;;5035570;28;20482;-96
2021/05/04 07:54:23;;;;;;;5.77;5.27;;;;;;;;;;5031756;28;20478;-92
2021/05/04 07:56:50;;;;;;;7.90;4.90;;;;;;;;;;5032420;28;20466;-95
2021/05/04 07:59:16;;;;;;;5.37;4.63;;;;;;;;;;5003123;28;20452;-96
2021/05/04 08:04:23;;;;;;;5.43;4.93;;;;;;;;;;5032867;28;20466;-96
2021/05/04 08:09:38;;;;;;;6.20;5.40;;;;;;;;;;5023788;28;20458;-96
2021/05/04 08:12:05;;;;;;;6.63;4.80;;;;;;;;;;5031061;28;20451;-94
2021/05/04 08:14:32;;;;;;;10.97;4.87;;;;;;;;;;5028693;28;20462;-92
2021/05/04 08:17:02;;;;;;;7.60;5.40;;;;;;;;;;5034295;28;20466;-96
2021/05/04 08:19:28;;;;;;;7.23;5.40;;;;;;;;;;5029397;28;20455;-94
2021/05/04 08:21:56;;;;;;;7.77;5.40;;;;;;;;;;5030469;28;20458;-95
2021/05/04 08:24:22;;;;;;;5.27;4.87;;;;;;;;;;5047242;28;20473;-96
2021/05/04 08:26:48;;;;;;;5.60;5.10;;;;;;;;;;5029664;28;20528;-96
2021/05/04 08:29:15;;;;;;;10.13;5.50;;;;;;;;;;5208853;22;20504;-96
2021/05/04 08:31:41;;;;;;;7.23;5.67;;;;;;;;;;5052103;28;20461;-95
2021/05/04 08:36:42;;;;;;;9.43;5.30;;;;;;;;;;4968684;23;20570;-92
2021/05/04 08:39:08;;;;;;;6.40;5.17;;;;;;;;;;5047943;28;20458;-93
2021/05/04 08:41:35;;;;;;;7.30;5.77;;;;;;;;;;5038061;28;20458;-95
2021/05/04 08:44:02;;;;;;;6.37;5.73;;;;;;;;;;5045702;28;20519;-96
2021/05/04 08:46:34;;;;;;;6.07;5.07;;;;;;;;;;5028121;28;20495;-92
2021/05/04 08:49:00;;;;;;;6.00;5.47;;;;;;;;;;5044311;28;20457;-91
2021/05/04 08:51:26;;;;;;;6.77;6.03;;;;;;;;;;5046485;28;20478;-96
2021/05/04 08:56:35;;;;;;;6.23;5.73;;;;;;;;;;5048169;28;20475;-94
2021/05/04 08:59:01;;;;;;;5.77;5.17;;;;;;;;;;5053640;28;20450;-95
2021/05/04 09:01:27;;;;;;;8.70;5.50;;;;;;;;;;5053539;28;20477;-95
2021/05/04 09:04:00;;;;;;;6.40;5.90;;;;;;;;;;5053144;28;20450;-96
2021/05/04 09:06:30;;;;;;;7.10;6.17;;;;;;;;;;5048347;28;20496;-95
2021/05/04 09:09:05;;;;;;;6.17;5.57;;;;;;;;;;5052687;28;20553;-93
2021/05/04 09:11:38;;;;;;;7.60;6.40;;;;;;;;;;5047028;28;20527;-93
2021/05/04 09:14:10;;;;;;;6.60;6.00;;;;;;;;;;5053013;28;20494;-96
2021/05/04 09:16:42;;;;;;;10.33;6.20;;;;;;;;;;5052294;28;20458;-96
2021/05/04 09:22:06;;;;;;;8.43;5.63;;;;;;;;;;5052382;28;20451;-96
2021/05/04 09:24:40;;;;;;;6.37;5.87;;;;;;;;;;5062216;28;20432;-96
2021/05/04 09:27:07;;;;;;;7.00;5.87;;;;;;;;;;5050752;28;20536;-95
2021/05/04 09:29:35;;;;;;;6.63;5.93;;;;;;;;;;5068098;28;20479;-96
2021/05/04 09:32:14;;;;;;;6.13;5.53;;;;;;;;;;5047414;28;20455;-93
2021/05/04 09:34:48;;;;;;;6.43;5.83;;;;;;;;;;5056862;28;20449;-96
2021/05/04 09:37:24;;;;;;;5.77;5.27;;;;;;;;;;5056509;28;20458;-94
2021/05/04 09:39:51;;;;;;;9.67;5.90;;;;;;;;;;5051380;28;20449;-93
2021/05/04 09:42:20;;;;;;;6.30;5.80;;;;;;;;;;5061705;28;20454;-96
2021/05/04 09:44:46;;;;;;;6.40;5.60;;;;;;;;;;5064297;22;20490;-93
2021/05/04 09:47:13;;;;;;;6.73;5.63;;;;;;;;;;5055271;28;20520;-94
2021/05/04 09:49:40;;;;;;;8.30;5.20;;;;;;;;;;5056305;28;20456;-93
2021/05/04 09:52:23;;;;;;;5.60;5.10;;;;;;;;;;5053871;28;20485;-94
2021/05/04 09:54:49;;;;;;;5.97;5.47;;;;;;;;;;5045677;28;20458;-96
2021/05/04 09:57:35;;;;;;;6.37;5.77;;;;;;;;;;5052980;28;20451;-96
2021/05/04 10:00:02;;;;;;;6.27;5.67;;;;;;;;;;5054941;28;20556;-94
2021/05/04 10:02:33;;;;;;;6.10;5.60;;;;;;;;;;5055641;28;20460;-96
2021/05/04 10:05:00;;;;;;;5.60;5.13;;;;;;;;;;5059206;28;20965;-94
2021/05/04 10:07:28;;;;;;;6.13;5.43;;;;;;;;;;5206639;22;20550;-94
2021/05/04 10:10:07;;;;;;;9.00;5.67;;;;;;;;;;5069689;28;20448;-96
2021/05/04 10:12:34;;;;;;;5.93;5.40;;;;;;;;;;5082877;28;20480;-96
2021/05/04 10:15:07;;;;;;;5.73;5.23;;;;;;;;;;5070440;28;20457;-96
2021/05/04 10:17:37;;;;;;;8.97;5.90;;;;;;;;;;5078076;28;20520;-96
2021/05/04 10:20:04;;;;;;;6.23;5.50;;;;;;;;;;5078555;28;20463;-92
2021/05/04 10:22:31;;;;;;;5.77;5.30;;;;;;;;;;5073151;28;20986;-94
2021/05/04 10:24:57;;;;;;;7.60;5.30;;;;;;;;;;5074930;28;20601;-96
2021/05/04 10:27:24;;;;;;;5.20;4.70;;;;;;;;;;5062170;23;20502;-94
2021/05/04 10:29:51;;;;;;;6.10;5.50;;;;;;;;;;5046435;28;20465;-96
2021/05/04 10:32:36;;;;;;;6.13;5.63;;;;;;;;;;5048234;28;20435;-95
2021/05/04 10:35:25;;;;;;;6.30;5.70;;;;;;;;;;5050370;23;20503;-96
2021/05/04 10:37:56;;;;;;;6.50;5.00;;;;;;;;;;5078208;28;20453;-95
2021/05/04 10:40:51;;;;;;;22.53;6.60;;;;;;;;;;5068509;28;20486;-96
2021/05/04 10:46:38;;;;;;;15.97;6.20;;;;;;;;;;5072181;28;20469;-94
2021/05/04 10:49:35;;;;;;;5.80;5.30;;;;;;;;;;5063930;22;20534;-96
2021/05/04 10:52:01;;;;;;;6.53;4.90;;;;;;;;;;5035319;28;20508;-94
2021/05/04 10:55:03;;;;;;;5.30;4.60;;;;;;;;;;5037379;28;20443;-96
2021/05/04 10:57:50;;;;;;;6.10;5.17;;;;;;;;;;5041560;28;20497;-93
2021/05/04 11:00:46;;;;;;;5.63;4.90;;;;;;;;;;5032659;28;20463;-95
2021/05/04 11:03:30;;;;;;;8.97;5.33;;;;;;;;;;5031379;28;20468;-96
2021/05/04 11:05:56;;;;;;;5.13;4.63;;;;;;;;;;5042070;28;20435;-96
2021/05/04 11:08:22;;;;;;;6.70;4.97;;;;;;;;;;5040585;28;20506;-95
2021/05/04 11:11:06;;;;;;;5.30;4.80;;;;;;;;;;5036220;28;20459;-95
2021/05/04 11:16:35;;;;;;;5.63;5.13;;;;;;;;;;5041734;28;20458;-96
2021/05/04 11:19:17;;;;;;;5.37;4.93;;;;;;;;;;5037022;28;20506;-95
2021/05/04 11:21:49;;;;;;;6.30;5.70;;;;;;;;;;5028750;28;20452;-96
2021/05/04 11:24:40;;;;;;;5.57;4.30;;;;;;;;;;5043010;28;20448;-96
2021/05/04 11:30:44;;;;;;;6.13;5.53;;;;;;;;;;5036840;28;20447;-96
2021/05/04 11:33:31;;;;;;;5.40;4.90;;;;;;;;;;5049751;28;20451;-96
2021/05/04 11:36:36;;;;;;;5.77;5.27;;;;;;;;;;5033983;28;20466;-96
2021/05/04 11:39:03;;;;;;;6.63;4.73;;;;;;;;;;5031050;28;20450;-96
2021/05/04 11:44:07;;;;;;;6.43;4.80;;;;;;;;;;5104060;22;20509;-96
2021/05/04 11:49:08;;;;;;;6.43;5.83;;;;;;;;;;4965104;26;20471;-96
2021/05/04 11:51:36;;;;;;;9.10;5.53;;;;;;;;;;5100090;23;20474;-94
2021/05/04 11:54:02;;;;;;;9.30;6.33;;;;;;;;;;5050293;28;20443;-94
2021/05/04 11:56:53;;;;;;;8.03;5.60;;;;;;;;;;5058368;28;20450;-96
2021/05/04 11:59:26;;;;;;;5.63;5.13;;;;;;;;;;5060545;28;20450;-96
2021/05/04 12:01:56;;;;;;;6.47;5.97;;;;;;;;;;5062985;23;20473;-96
2021/05/04 12:04:47;;;;;;;5.77;5.37;;;;;;;;;;5039592;28;20434;-96
2021/05/04 12:07:48;;;;;;;5.50;5.00;;;;;;;;;;5025228;28;20473;-96
2021/05/04 12:10:23;;;;;;;6.67;5.43;;;;;;;;;;5077368;22;20516;-96
2021/05/04 12:13:01;;;;;;;5.83;4.93;;;;;;;;;;5056790;23;20426;-96
2021/05/04 12:15:28;;;;;;;6.27;5.67;;;;;;;;;;5050593;28;20470;-96
2021/05/04 12:18:15;;;;;;;5.70;5.20;;;;;;;;;;5051384;28;20489;-96
2021/05/04 12:21:09;;;;;;;6.10;5.10;;;;;;;;;;5053434;28;20473;-94
2021/05/04 12:23:35;;;;;;;9.03;4.97;;;;;;;;;;5065068;23;20580;-93
2021/05/04 12:26:04;;;;;;;5.27;4.87;;;;;;;;;;5039044;28;20467;-95
2021/05/04 12:28:31;;;;;;;5.93;5.27;;;;;;;;;;5043662;28;20466;-95
2021/05/04 12:31:11;;;;;;;5.70;5.23;;;;;;;;;;5044116;28;20443;-95
2021/05/04 12:33:46;;;;;;;7.93;5.90;;;;;;;;;;5049782;28;20502;-95
2021/05/04 12:36:33;;;;;;;6.53;5.60;;;;;;;;;;5039448;28;20446;-95
2021/05/04 12:39:20;;;;;;;9.10;6.00;;;;;;;;;;5042848;28;20451;-96
2021/05/04 12:41:53;;;;;;;6.83;5.70;;;;;;;;;;5040935;28;20455;-96
2021/05/04 12:44:43;;;;;;;7.03;5.90;;;;;;;;;;5043451;28;20443;-96
2021/05/04 12:47:16;;;;;;;5.87;5.27;;;;;;;;;;5043894;28;20481;-96
2021/05/04 12:49:43;;;;;;;5.53;5.00;;;;;;;;;;5049830;28;20443;-95
2021/05/04 12:52:09;;;;;;;8.50;5.40;;;;;;;;;;5049688;28;20478;-96
2021/05/04 12:54:42;;;;;;;6.90;5.43;;;;;;;;;;5048744;28;20518;-95
2021/05/04 12:57:19;;;;;;;7.70;5.47;;;;;;;;;;5017404;28;20443;-95
2021/05/04 12:59:53;;;;;;;6.50;5.90;;;;;;;;;;5048803;28;20466;-95
2021/05/04 13:02:36;;;;;;;8.60;5.87;;;;;;;;;;5042895;28;20467;-95
2021/05/04 13:10:31;;;;;;;6.77;5.43;;;;;;;;;;5043236;28;20463;-96
2021/05/04 13:30:16;;;;;;;15.27;5.67;;;;;;;;;;5039036;28;20455;-96
2021/05/04 13:35:37;;;;;;;8.97;5.37;;;;;;;;;;5041680;23;20488;-96
2021/05/04 13:38:06;;;;;;;6.50;5.90;;;;;;;;;;5038170;28;20538;-94
2021/05/04 13:44:41;;;;;;;7.83;5.50;;;;;;;;;;5041811;28;20864;-96
2021/05/04 13:51:42;;;;;;;6.50;5.90;;;;;;;;;;5017718;28;20483;-96
2021/05/04 13:54:12;;;;;;;7.23;6.20;;;;;;;;;;5157131;23;20564;-96
2021/05/04 13:56:50;;;;;;;5.67;5.20;;;;;;;;;;5057373;23;20518;-96
2021/05/04 13:59:30;;;;;;;6.33;5.73;;;;;;;;;;5070547;23;20496;-94
2021/05/04 14:02:14;;;;;;;8.80;5.70;;;;;;;;;;5072548;22;20502;-96
2021/05/04 14:04:53;;;;;;;8.57;6.13;;;;;;;;;;5042825;28;20436;-96
2021/05/04 14:27:22;;;;;;;6.90;6.30;;;;;;;;;;5056320;22;20528;-94
2021/05/04 14:29:58;;;;;;;10.20;6.30;;;;;;;;;;5020482;28;20551;-93
2021/05/04 14:32:27;;;;;;;9.63;6.40;;;;;;;;;;5006346;28;20503;-94
2021/05/04 14:34:59;;;;;;;8.23;5.87;;;;;;;;;;5012754;28;20461;-96
2021/05/04 14:37:27;;;;;;;6.97;6.27;;;;;;;;;;5020479;28;20435;-96
2021/05/04 14:40:11;;;;;;;7.17;6.50;;;;;;;;;;5022771;28;20459;-96
2021/05/04 14:57:31;;;;;;;6.60;5.90;;;;;;;;;;4936463;29;20480;-96
2021/05/04 15:00:35;;;;;;;7.60;5.93;;;;;;;;;;5056464;23;20487;-95
2021/05/04 15:03:22;;;;;;;7.20;5.87;;;;;;;;;;5037761;28;20475;-96
2021/05/04 15:05:48;;;;;;;6.33;5.60;;;;;;;;;;5058651;23;20442;-96
2021/05/04 15:08:44;;;;;;;8.60;6.10;;;;;;;;;;5040651;28;20479;-96
2021/05/04 15:11:11;;;;;;;6.70;6.00;;;;;;;;;;5034141;28;20439;-95
2021/05/04 15:13:40;;;;;;;7.40;5.83;;;;;;;;;;5099471;22;20661;-96
2021/05/04 15:16:29;;;;;;;6.93;5.80;;;;;;;;;;5033769;28;20478;-96
2021/05/04 15:21:56;;;;;;;7.80;6.50;;;;;;;;;;5039034;28;20453;-96
2021/05/04 15:24:22;;;;;;;5.93;5.33;;;;;;;;;;5101985;23;20464;-96
2021/05/04 15:26:49;;;;;;;9.43;5.80;;;;;;;;;;5069375;28;20454;-94
2021/05/04 15:29:32;;;;;;;9.10;5.97;;;;;;;;;;5072728;28;20447;-96
2021/05/04 15:34:32;;;;;;;6.50;5.80;;;;;;;;;;5024470;28;20506;-95
2021/05/04 15:36:58;;;;;;;6.80;5.63;;;;;;;;;;5024161;28;20531;-95
2021/05/04 15:39:24;;;;;;;7.93;5.70;;;;;;;;;;5009584;28;20458;-95
2021/05/04 15:41:51;;;;;;;6.23;5.60;;;;;;;;;;5018786;28;20478;-94
2021/05/04 15:47:22;;;;;;;6.50;5.80;;;;;;;;;;5028325;28;20492;-95
2021/05/04 15:49:54;;;;;;;6.57;5.60;;;;;;;;;;5070066;23;20479;-96
2021/05/04 15:52:50;;;;;;;7.73;5.90;;;;;;;;;;5032877;28;20439;-95
2021/05/04 15:55:35;;;;;;;7.20;6.53;;;;;;;;;;5026093;28;20554;-95
2021/05/04 16:06:40;;;;;;;6.10;5.50;;;;;;;;;;5033311;28;20459;-96
2021/05/04 16:09:11;;;;;;;7.50;5.73;;;;;;;;;;5012424;28;20539;-96
2021/05/04 16:11:37;;;;;;;6.80;6.10;;;;;;;;;;5019616;28;20591;-94
2021/05/04 16:14:04;;;;;;;6.83;6.13;;;;;;;;;;5012349;28;20445;-96
2021/05/04 16:16:34;;;;;;;7.03;5.90;;;;;;;;;;5020348;28;21002;-96
2021/05/04 16:19:08;;;;;;;7.03;6.23;;;;;;;;;;5017584;28;20479;-96
2021/05/04 16:21:40;;;;;;;9.57;6.20;;;;;;;;;;5019847;28;20489;-94
2021/05/04 16:27:18;;;;;;;9.70;6.30;;;;;;;;;;5027614;28;20431;-96
2021/05/04 16:29:58;;;;;;;8.63;6.33;;;;;;;;;;5009713;28;20449;-94
2021/05/04 16:32:27;;;;;;;6.87;6.27;;;;;;;;;;5022175;28;20514;-96
2021/05/04 16:34:53;;;;;;;7.33;6.53;;;;;;;;;;5002612;28;20499;-96
2021/05/04 16:37:21;;;;;;;11.03;7.00;;;;;;;;;;5021964;28;20828;-95
2021/05/04 16:39:47;;;;;;;6.97;6.00;;;;;;;;;;5025361;28;20467;-96
2021/05/04 16:42:26;;;;;;;8.57;6.40;;;;;;;;;;5031233;28;20463;-96
2021/05/04 16:45:04;;;;;;;6.90;6.30;;;;;;;;;;5062280;23;20479;-96
2021/05/04 16:49:59;;;;;;;7.93;6.30;;;;;;;;;;5030721;28;20469;-96
2021/05/04 16:52:25;;;;;;;10.60;6.37;;;;;;;;;;5025586;28;20450;-95
2021/05/04 16:54:57;;;;;;;7.43;6.63;;;;;;;;;;5100982;23;20551;-96
2021/05/04 16:57:26;;;;;;;11.60;6.77;;;;;;;;;;5008530;28;20513;-96
2021/05/04 16:59:52;;;;;;;9.40;6.30;;;;;;;;;;5015047;28;20451;-96
2021/05/04 17:02:21;;;;;;;9.77;6.93;;;;;;;;;;5036589;23;20491;-95
2021/05/04 17:04:47;;;;;;;6.90;6.23;;;;;;;;;;5017853;28;20466;-95
2021/05/04 17:07:18;;;;;;;7.93;7.13;;;;;;;;;;5037060;28;20553;-96
2021/05/04 17:10:00;;;;;;;8.50;6.80;;;;;;;;;;5067053;23;20545;-96
2021/05/04 17:12:28;;;;;;;9.83;7.00;;;;;;;;;;5021042;28;20460;-96
2021/05/04 17:14:57;;;;;;;9.23;6.60;;;;;;;;;;5017255;28;20423;-95
2021/05/04 17:17:24;;;;;;;7.00;6.40;;;;;;;;;;5062295;23;20494;-94
2021/05/04 17:19:50;;;;;;;7.13;6.43;;;;;;;;;;5052453;28;20454;-95
2021/05/04 17:22:19;;;;;;;7.97;6.83;;;;;;;;;;5280094;22;20513;-96
2021/05/04 17:24:47;;;;;;;7.37;6.67;;;;;;;;;;5080915;22;20446;-96
2021/05/04 17:27:13;;;;;;;7.30;6.13;;;;;;;;;;5047042;28;20479;-96
2021/05/04 17:32:05;;;;;;;9.03;6.50;;;;;;;;;;5148049;23;20487;-96
2021/05/04 17:34:31;;;;;;;8.70;7.27;;;;;;;;;;5061907;23;20516;-96
2021/05/04 17:36:58;;;;;;;8.10;7.40;;;;;;;;;;5071063;28;20454;-96
2021/05/04 17:39:24;;;;;;;9.13;8.37;;;;;;;;;;5061677;28;20437;-96
2021/05/04 17:41:52;;;;;;;10.27;8.23;;;;;;;;;;5064892;28;20440;-96